sensor_id;sensor_type;location;lat;lon;timestamp;pressure;altitude;pressure_sealevel;temperature;humidity
70434;BME280;57876;47.792;12.960;2023-03-23T00:02:03;96386.06;;;15.67;45.00
70434;BME280;57876;47.792;12.960;2023-03-23T00:04:27;96385.28;;;15.67;44.88
70434;BME280;57876;47.792;12.960;2023-03-23T00:06:53;96387.19;;;15.66;44.98
70434;BME280;57876;47.792;12.960;2023-03-23T00:09:17;96392.63;;;15.66;44.93
70434;BME280;57876;47.792;12.960;2023-03-23T00:11:47;96392.31;;;15.68;45.14
70434;BME280;57876;47.792;12.960;2023-03-23T00:14:12;96386.06;;;15.67;44.88
70434;BME280;57876;47.792;12.960;2023-03-23T00:16:37;96397.75;;;15.68;44.88
70434;BME280;57876;47.792;12.960;2023-03-23T00:19:05;96390.25;;;15.64;44.85
70434;BME280;57876;47.792;12.960;2023-03-23T00:21:36;96391.53;;;15.67;44.92
70434;BME280;57876;47.792;12.960;2023-03-23T00:24:09;96389.44;;;15.64;44.95
70434;BME280;57876;47.792;12.960;2023-03-23T00:26:39;96388.31;;;15.65;45.26
70434;BME280;57876;47.792;12.960;2023-03-23T00:29:12;96387.53;;;15.64;45.07
70434;BME280;57876;47.792;12.960;2023-03-23T00:31:37;96385.91;;;15.63;45.17
70434;BME280;57876;47.792;12.960;2023-03-23T00:34:04;96388.63;;;15.63;45.21
70434;BME280;57876;47.792;12.960;2023-03-23T00:36:29;96384.00;;;15.64;44.92
70434;BME280;57876;47.792;12.960;2023-03-23T00:38:54;96381.28;;;15.64;45.18
70434;BME280;57876;47.792;12.960;2023-03-23T00:41:22;96379.34;;;15.64;44.98
70434;BME280;57876;47.792;12.960;2023-03-23T00:43:46;96371.16;;;15.64;45.23
70434;BME280;57876;47.792;12.960;2023-03-23T00:46:12;96369.53;;;15.63;45.52
70434;BME280;57876;47.792;12.960;2023-03-23T00:48:37;96370.38;;;15.64;45.03
70434;BME280;57876;47.792;12.960;2023-03-23T00:51:08;96365.72;;;15.64;44.75
70434;BME280;57876;47.792;12.960;2023-03-23T00:53:37;96372.28;;;15.63;45.23
70434;BME280;57876;47.792;12.960;2023-03-23T00:56:02;96364.09;;;15.63;44.97
70434;BME280;57876;47.792;12.960;2023-03-23T00:58:26;96366.38;;;15.61;45.06
70434;BME280;57876;47.792;12.960;2023-03-23T01:00:51;96373.41;;;15.62;45.34
70434;BME280;57876;47.792;12.960;2023-03-23T01:03:15;96368.75;;;15.63;45.12
70434;BME280;57876;47.792;12.960;2023-03-23T01:05:42;96361.72;;;15.62;44.90
70434;BME280;57876;47.792;12.960;2023-03-23T01:08:06;96357.06;;;15.62;45.19
70434;BME280;57876;47.792;12.960;2023-03-23T01:10:31;96360.91;;;15.61;44.84
70434;BME280;57876;47.792;12.960;2023-03-23T01:13:02;96358.19;;;15.61;45.18
70434;BME280;57876;47.792;12.960;2023-03-23T01:15:30;96353.84;;;15.60;45.17
70434;BME280;57876;47.792;12.960;2023-03-23T01:17:55;96357.06;;;15.62;45.04
70434;BME280;57876;47.792;12.960;2023-03-23T01:20:19;96352.75;;;15.61;44.83
70434;BME280;57876;47.792;12.960;2023-03-23T01:22:44;96345.69;;;15.60;44.93
70434;BME280;57876;47.792;12.960;2023-03-23T01:25:11;96342.94;;;15.60;45.15
70434;BME280;57876;47.792;12.960;2023-03-23T01:27:36;96340.56;;;15.59;45.01
70434;BME280;57876;47.792;12.960;2023-03-23T01:30:00;96344.56;;;15.61;45.34
70434;BME280;57876;47.792;12.960;2023-03-23T01:32:25;96332.03;;;15.60;45.42
70434;BME280;57876;47.792;12.960;2023-03-23T01:34:49;96339.09;;;15.61;44.98
70434;BME280;57876;47.792;12.960;2023-03-23T01:37:14;96331.25;;;15.60;45.16
70434;BME280;57876;47.792;12.960;2023-03-23T01:39:39;96331.25;;;15.60;44.95
70434;BME280;57876;47.792;12.960;2023-03-23T01:42:04;96327.38;;;15.61;44.88
70434;BME280;57876;47.792;12.960;2023-03-23T01:46:53;96322.59;;;15.58;45.16
70434;BME280;57876;47.792;12.960;2023-03-23T01:49:21;96311.69;;;15.58;44.99
70434;BME280;57876;47.792;12.960;2023-03-23T01:52:15;96320.34;;;15.60;45.12
70434;BME280;57876;47.792;12.960;2023-03-23T01:54:41;96317.94;;;15.58;45.17
70434;BME280;57876;47.792;12.960;2023-03-23T01:57:15;96318.75;;;15.59;45.26
70434;BME280;57876;47.792;12.960;2023-03-23T01:59:45;96310.91;;;15.57;45.18
70434;BME280;57876;47.792;12.960;2023-03-23T02:02:12;96311.69;;;15.58;45.08
70434;BME280;57876;47.792;12.960;2023-03-23T02:04:37;96317.94;;;15.58;44.90
70434;BME280;57876;47.792;12.960;2023-03-23T02:07:02;96309.75;;;15.58;45.08
70434;BME280;57876;47.792;12.960;2023-03-23T02:09:27;96305.44;;;15.57;44.96
70434;BME280;57876;47.792;12.960;2023-03-23T02:11:53;96311.25;;;15.56;45.12
70434;BME280;57876;47.792;12.960;2023-03-23T02:14:19;96318.75;;;15.59;45.02
70434;BME280;57876;47.792;12.960;2023-03-23T02:17:17;96309.75;;;15.58;44.95
70434;BME280;57876;47.792;12.960;2023-03-23T02:31:27;96297.63;;;15.56;45.18
70434;BME280;57876;47.792;12.960;2023-03-23T02:36:35;96292.47;;;15.54;45.14
70434;BME280;57876;47.792;12.960;2023-03-23T02:41:39;96295.22;;;15.54;45.07
70434;BME280;57876;47.792;12.960;2023-03-23T02:44:06;96300.66;;;15.54;45.17
70434;BME280;57876;47.792;12.960;2023-03-23T02:46:33;96292.16;;;15.56;45.25
70434;BME280;57876;47.792;12.960;2023-03-23T02:49:01;96292.47;;;15.54;44.95
70434;BME280;57876;47.792;12.960;2023-03-23T02:51:28;96292.97;;;15.56;45.15
70434;BME280;57876;47.792;12.960;2023-03-23T02:53:54;96288.97;;;15.54;44.90
70434;BME280;57876;47.792;12.960;2023-03-23T02:56:22;96287.34;;;15.53;45.06
70434;BME280;57876;47.792;12.960;2023-03-23T02:58:47;96299.88;;;15.54;44.90
70434;BME280;57876;47.792;12.960;2023-03-23T03:03:57;96307.69;;;15.55;45.28
70434;BME280;57876;47.792;12.960;2023-03-23T03:11:42;96288.16;;;15.53;45.02
70434;BME280;57876;47.792;12.960;2023-03-23T03:14:30;96288.97;;;15.54;45.09
70434;BME280;57876;47.792;12.960;2023-03-23T03:17:26;96293.28;;;15.55;44.94
70434;BME280;57876;47.792;12.960;2023-03-23T03:19:56;96292.00;;;15.52;45.24
70434;BME280;57876;47.792;12.960;2023-03-23T03:22:22;96287.34;;;15.53;44.94
70434;BME280;57876;47.792;12.960;2023-03-23T03:24:48;96289.28;;;15.52;44.90
70434;BME280;57876;47.792;12.960;2023-03-23T03:27:17;96292.00;;;15.52;45.27
70434;BME280;57876;47.792;12.960;2023-03-23T03:29:45;96298.25;;;15.53;45.12
70434;BME280;57876;47.792;12.960;2023-03-23T03:32:16;96292.66;;;15.49;45.10
70434;BME280;57876;47.792;12.960;2023-03-23T03:34:41;96294.41;;;15.54;44.91
70434;BME280;57876;47.792;12.960;2023-03-23T03:37:05;96293.63;;;15.53;45.20
70434;BME280;57876;47.792;12.960;2023-03-23T03:39:30;96293.94;;;15.52;44.95
70434;BME280;57876;47.792;12.960;2023-03-23T03:41:55;96294.41;;;15.54;45.13
70434;BME280;57876;47.792;12.960;2023-03-23T03:44:19;96295.53;;;15.53;45.14
70434;BME280;57876;47.792;12.960;2023-03-23T03:46:44;96295.06;;;15.51;45.28
70434;BME280;57876;47.792;12.960;2023-03-23T03:49:10;96294.25;;;15.50;45.19
70434;BME280;57876;47.792;12.960;2023-03-23T03:51:38;96298.25;;;15.53;45.03
70434;BME280;57876;47.792;12.960;2023-03-23T03:54:03;96292.00;;;15.52;45.26
70434;BME280;57876;47.792;12.960;2023-03-23T03:56:27;96300.19;;;15.52;44.90
70434;BME280;57876;47.792;12.960;2023-03-23T03:58:53;96297.47;;;15.52;45.18
70434;BME280;57876;47.792;12.960;2023-03-23T04:01:19;96297.47;;;15.52;45.04
70434;BME280;57876;47.792;12.960;2023-03-23T04:03:45;96295.06;;;15.51;44.91
70434;BME280;57876;47.792;12.960;2023-03-23T04:06:11;96300.19;;;15.52;45.31
70434;BME280;57876;47.792;12.960;2023-03-23T04:08:39;96293.94;;;15.52;44.93
70434;BME280;57876;47.792;12.960;2023-03-23T04:11:05;96295.88;;;15.51;45.18
70434;BME280;57876;47.792;12.960;2023-03-23T04:13:30;96296.97;;;15.50;44.91
70434;BME280;57876;47.792;12.960;2023-03-23T04:15:54;96305.97;;;15.51;45.43
70434;BME280;57876;47.792;12.960;2023-03-23T04:18:19;96302.78;;;15.49;45.10
70434;BME280;57876;47.792;12.960;2023-03-23T04:20:45;96318.78;;;15.50;44.89
70434;BME280;57876;47.792;12.960;2023-03-23T04:23:11;96320.41;;;15.51;45.32
70434;BME280;57876;47.792;12.960;2023-03-23T04:25:36;96313.34;;;15.50;44.97
70434;BME280;57876;47.792;12.960;2023-03-23T04:28:00;96316.88;;;15.51;44.99
70434;BME280;57876;47.792;12.960;2023-03-23T04:30:25;96320.41;;;15.51;44.97
70434;BME280;57876;47.792;12.960;2023-03-23T04:32:51;96322.34;;;15.51;45.27
70434;BME280;57876;47.792;12.960;2023-03-23T04:35:18;96318.34;;;15.48;45.01
70434;BME280;57876;47.792;12.960;2023-03-23T04:37:43;96324.22;;;15.50;44.87
70434;BME280;57876;47.792;12.960;2023-03-23T04:40:08;96318.00;;;15.50;45.07
70434;BME280;57876;47.792;12.960;2023-03-23T04:42:39;96316.06;;;15.50;45.15
70434;BME280;57876;47.792;12.960;2023-03-23T04:45:06;96318.00;;;15.50;44.98
70434;BME280;57876;47.792;12.960;2023-03-23T04:47:33;96321.50;;;15.50;44.97
70434;BME280;57876;47.792;12.960;2023-03-23T04:49:58;96334.34;;;15.50;45.09
70434;BME280;57876;47.792;12.960;2023-03-23T04:52:24;96330.81;;;15.49;44.94
70434;BME280;57876;47.792;12.960;2023-03-23T04:54:50;96333.53;;;15.49;45.06
70434;BME280;57876;47.792;12.960;2023-03-23T04:57:14;96336.28;;;15.49;45.04
70434;BME280;57876;47.792;12.960;2023-03-23T04:59:39;96340.94;;;15.49;45.18
70434;BME280;57876;47.792;12.960;2023-03-23T05:02:05;96340.59;;;15.50;44.99
70434;BME280;57876;47.792;12.960;2023-03-23T05:04:29;96330.03;;;15.49;44.99
70434;BME280;57876;47.792;12.960;2023-03-23T05:06:53;96336.28;;;15.49;45.01
70434;BME280;57876;47.792;12.960;2023-03-23T05:09:18;96344.44;;;15.49;45.26
70434;BME280;57876;47.792;12.960;2023-03-23T05:11:43;96343.31;;;15.50;44.97
70434;BME280;57876;47.792;12.960;2023-03-23T05:14:08;96341.72;;;15.49;45.12
70434;BME280;57876;47.792;12.960;2023-03-23T05:16:32;96342.03;;;15.48;45.17
70434;BME280;57876;47.792;12.960;2023-03-23T05:18:57;96340.94;;;15.49;45.17
70434;BME280;57876;47.792;12.960;2023-03-23T05:21:22;96328.41;;;15.48;45.27
70434;BME280;57876;47.792;12.960;2023-03-23T05:23:47;96335.47;;;15.49;45.11
70434;BME280;57876;47.792;12.960;2023-03-23T05:26:11;96344.44;;;15.49;45.07
70434;BME280;57876;47.792;12.960;2023-03-23T05:28:35;96343.97;;;15.47;45.20
70434;BME280;57876;47.792;12.960;2023-03-23T05:31:00;96338.53;;;15.47;45.05
70434;BME280;57876;47.792;12.960;2023-03-23T05:33:25;96350.22;;;15.48;45.05
70434;BME280;57876;47.792;12.960;2023-03-23T05:35:49;96348.31;;;15.48;45.26
70434;BME280;57876;47.792;12.960;2023-03-23T05:38:15;96353.75;;;15.48;44.82
70434;BME280;57876;47.792;12.960;2023-03-23T05:40:40;96351.03;;;15.48;45.25
70434;BME280;57876;47.792;12.960;2023-03-23T05:43:08;96351.03;;;15.48;45.53
70434;BME280;57876;47.792;12.960;2023-03-23T05:45:33;96356.50;;;15.48;45.02
70434;BME280;57876;47.792;12.960;2023-03-23T05:47:59;96362.72;;;15.49;44.86
70434;BME280;57876;47.792;12.960;2023-03-23T05:50:23;96359.22;;;15.48;45.21
70434;BME280;57876;47.792;12.960;2023-03-23T05:52:48;96368.97;;;15.49;45.20
70434;BME280;57876;47.792;12.960;2023-03-23T05:55:12;96369.28;;;15.48;44.95
70434;BME280;57876;47.792;12.960;2023-03-23T05:57:38;96368.50;;;15.47;45.10
70434;BME280;57876;47.792;12.960;2023-03-23T06:00:04;96373.47;;;15.45;45.20
70434;BME280;57876;47.792;12.960;2023-03-23T06:02:49;96378.28;;;15.48;45.08
70434;BME280;57876;47.792;12.960;2023-03-23T06:05:15;96370.44;;;15.47;44.97
70434;BME280;57876;47.792;12.960;2023-03-23T06:07:40;96364.97;;;15.47;44.84
70434;BME280;57876;47.792;12.960;2023-03-23T06:10:05;96367.69;;;15.47;44.96
70434;BME280;57876;47.792;12.960;2023-03-23T06:12:31;96369.63;;;15.46;45.38
70434;BME280;57876;47.792;12.960;2023-03-23T06:14:55;96363.38;;;15.46;45.32
70434;BME280;57876;47.792;12.960;2023-03-23T06:17:20;96373.16;;;15.47;45.12
70434;BME280;57876;47.792;12.960;2023-03-23T06:19:44;96368.50;;;15.47;45.18
70434;BME280;57876;47.792;12.960;2023-03-23T06:22:13;96373.94;;;15.47;45.09
70434;BME280;57876;47.792;12.960;2023-03-23T06:24:38;96378.59;;;15.47;44.94
70434;BME280;57876;47.792;12.960;2023-03-23T06:27:02;96376.69;;;15.47;45.02
70434;BME280;57876;47.792;12.960;2023-03-23T06:29:27;96375.88;;;15.47;45.29
70434;BME280;57876;47.792;12.960;2023-03-23T06:31:55;96371.09;;;15.44;44.88
70434;BME280;57876;47.792;12.960;2023-03-23T06:34:21;96370.75;;;15.45;45.19
70434;BME280;57876;47.792;12.960;2023-03-23T06:36:46;96372.34;;;15.46;44.86
70434;BME280;57876;47.792;12.960;2023-03-23T06:39:11;96366.91;;;15.46;44.99
70434;BME280;57876;47.792;12.960;2023-03-23T06:41:35;96366.56;;;15.48;45.09
70434;BME280;57876;47.792;12.960;2023-03-23T06:44:00;96365.78;;;15.47;45.03
70434;BME280;57876;47.792;12.960;2023-03-23T06:46:25;96372.34;;;15.46;45.05
70434;BME280;57876;47.792;12.960;2023-03-23T06:48:49;96372.34;;;15.46;45.12
70434;BME280;57876;47.792;12.960;2023-03-23T06:51:14;96371.22;;;15.47;45.11
70434;BME280;57876;47.792;12.960;2023-03-23T06:53:38;96371.22;;;15.47;45.14
70434;BME280;57876;47.792;12.960;2023-03-23T06:56:03;96365.78;;;15.47;45.03
70434;BME280;57876;47.792;12.960;2023-03-23T06:58:27;96364.50;;;15.45;44.89
70434;BME280;57876;47.792;12.960;2023-03-23T07:00:55;96376.69;;;15.47;45.16
70434;BME280;57876;47.792;12.960;2023-03-23T07:03:23;96371.22;;;15.47;45.00
70434;BME280;57876;47.792;12.960;2023-03-23T07:05:48;96370.13;;;15.48;44.92
70434;BME280;57876;47.792;12.960;2023-03-23T07:08:12;96380.53;;;15.46;45.09
70434;BME280;57876;47.792;12.960;2023-03-23T07:10:37;96371.22;;;15.47;45.11
70434;BME280;57876;47.792;12.960;2023-03-23T07:13:02;96376.69;;;15.47;45.09
70434;BME280;57876;47.792;12.960;2023-03-23T07:15:26;96376.69;;;15.47;44.72
70434;BME280;57876;47.792;12.960;2023-03-23T07:17:51;96373.16;;;15.47;44.93
70434;BME280;57876;47.792;12.960;2023-03-23T07:20:15;96376.69;;;15.47;45.18
70434;BME280;57876;47.792;12.960;2023-03-23T07:22:40;96379.41;;;15.47;44.85
70434;BME280;57876;47.792;12.960;2023-03-23T07:25:05;96374.75;;;15.48;44.83
70434;BME280;57876;47.792;12.960;2023-03-23T07:27:29;96369.63;;;15.46;44.76
70434;BME280;57876;47.792;12.960;2023-03-23T07:29:54;96390.00;;;15.49;45.23
70434;BME280;57876;47.792;12.960;2023-03-23T07:32:18;96382.91;;;15.48;45.21
70434;BME280;57876;47.792;12.960;2023-03-23T07:34:43;96383.75;;;15.48;45.12
70434;BME280;57876;47.792;12.960;2023-03-23T07:37:07;96379.09;;;15.49;44.80
70434;BME280;57876;47.792;12.960;2023-03-23T07:39:31;96375.88;;;15.47;45.26
70434;BME280;57876;47.792;12.960;2023-03-23T07:41:57;96388.38;;;15.48;45.10
70434;BME280;57876;47.792;12.960;2023-03-23T07:44:22;96383.75;;;15.48;44.93
70434;BME280;57876;47.792;12.960;2023-03-23T07:46:46;96382.13;;;15.47;44.96
70434;BME280;57876;47.792;12.960;2023-03-23T07:49:11;96382.13;;;15.47;45.31
70434;BME280;57876;47.792;12.960;2023-03-23T07:51:35;96373.16;;;15.47;44.97
70434;BME280;57876;47.792;12.960;2023-03-23T07:54:02;96380.53;;;15.46;44.92
70434;BME280;57876;47.792;12.960;2023-03-23T07:56:28;96382.91;;;15.48;45.04
70434;BME280;57876;47.792;12.960;2023-03-23T07:58:53;96376.69;;;15.47;44.92
70434;BME280;57876;47.792;12.960;2023-03-23T08:01:17;96366.91;;;15.46;44.73
70434;BME280;57876;47.792;12.960;2023-03-23T08:03:42;96379.41;;;15.47;45.02
70434;BME280;57876;47.792;12.960;2023-03-23T08:06:07;96380.19;;;15.48;45.19
70434;BME280;57876;47.792;12.960;2023-03-23T08:08:32;96379.41;;;15.47;44.94
70434;BME280;57876;47.792;12.960;2023-03-23T08:10:57;96374.28;;;15.46;45.15
70434;BME280;57876;47.792;12.960;2023-03-23T08:13:22;96380.19;;;15.48;45.19
70434;BME280;57876;47.792;12.960;2023-03-23T08:15:46;96382.13;;;15.47;44.92
70434;BME280;57876;47.792;12.960;2023-03-23T08:18:11;96376.69;;;15.47;45.18
70434;BME280;57876;47.792;12.960;2023-03-23T08:20:35;96379.41;;;15.47;45.18
70434;BME280;57876;47.792;12.960;2023-03-23T08:23:01;96375.88;;;15.47;45.11
70434;BME280;57876;47.792;12.960;2023-03-23T08:25:26;96384.06;;;15.47;45.20
70434;BME280;57876;47.792;12.960;2023-03-23T08:27:50;96387.56;;;15.47;45.11
70434;BME280;57876;47.792;12.960;2023-03-23T08:30:17;96379.41;;;15.47;44.94
70434;BME280;57876;47.792;12.960;2023-03-23T08:32:43;96391.09;;;15.48;45.25
70434;BME280;57876;47.792;12.960;2023-03-23T08:35:09;96404.72;;;15.48;45.31
70434;BME280;57876;47.792;12.960;2023-03-23T08:37:35;96397.38;;;15.48;45.02
70434;BME280;57876;47.792;12.960;2023-03-23T08:39:59;96386.47;;;15.48;45.18
70434;BME280;57876;47.792;12.960;2023-03-23T08:42:24;96385.66;;;15.48;45.07
70434;BME280;57876;47.792;12.960;2023-03-23T08:44:49;96382.13;;;15.47;45.11
70434;BME280;57876;47.792;12.960;2023-03-23T08:47:13;96378.28;;;15.48;44.80
70434;BME280;57876;47.792;12.960;2023-03-23T08:49:38;96372.84;;;15.48;45.18
70434;BME280;57876;47.792;12.960;2023-03-23T08:52:03;96368.97;;;15.49;44.94
70434;BME280;57876;47.792;12.960;2023-03-23T08:54:28;96373.63;;;15.49;44.99
70434;BME280;57876;47.792;12.960;2023-03-23T08:56:53;96371.69;;;15.49;44.95
70434;BME280;57876;47.792;12.960;2023-03-23T08:59:18;96364.66;;;15.48;45.26
70434;BME280;57876;47.792;12.960;2023-03-23T09:01:43;96372.84;;;15.48;44.85
70434;BME280;57876;47.792;12.960;2023-03-23T09:04:07;96386.13;;;15.50;45.21
70434;BME280;57876;47.792;12.960;2023-03-23T09:06:32;96374.44;;;15.49;44.97
70434;BME280;57876;47.792;12.960;2023-03-23T09:08:57;96374.75;;;15.48;44.93
70434;BME280;57876;47.792;12.960;2023-03-23T09:11:23;96379.09;;;15.49;45.03
70434;BME280;57876;47.792;12.960;2023-03-23T09:13:47;96379.09;;;15.49;45.13
70434;BME280;57876;47.792;12.960;2023-03-23T09:16:12;96373.63;;;15.49;45.00
70434;BME280;57876;47.792;12.960;2023-03-23T09:18:36;96370.91;;;15.49;45.20
70434;BME280;57876;47.792;12.960;2023-03-23T09:21:01;96368.97;;;15.49;44.92
70434;BME280;57876;47.792;12.960;2023-03-23T09:23:27;96361.94;;;15.48;45.04
70434;BME280;57876;47.792;12.960;2023-03-23T09:25:51;96364.66;;;15.48;45.01
70434;BME280;57876;47.792;12.960;2023-03-23T09:28:16;96359.22;;;15.48;45.02
70434;BME280;57876;47.792;12.960;2023-03-23T09:30:40;96361.94;;;15.48;45.21
70434;BME280;57876;47.792;12.960;2023-03-23T09:33:05;96358.38;;;15.48;45.11
70434;BME280;57876;47.792;12.960;2023-03-23T09:35:31;96347.19;;;15.49;45.15
70434;BME280;57876;47.792;12.960;2023-03-23T09:37:57;96351.84;;;15.49;44.98
70434;BME280;57876;47.792;12.960;2023-03-23T09:40:28;96354.06;;;15.47;45.17
70434;BME280;57876;47.792;12.960;2023-03-23T09:50:44;96352.63;;;15.49;45.21
70434;BME280;57876;47.792;12.960;2023-03-23T09:55:35;96356.94;;;15.50;44.93
70434;BME280;57876;47.792;12.960;2023-03-23T09:58:11;96360.50;;;15.51;44.89
70434;BME280;57876;47.792;12.960;2023-03-23T10:00:42;96349.41;;;15.47;45.02
70434;BME280;57876;47.792;12.960;2023-03-23T10:03:38;96338.53;;;15.47;45.23
70434;BME280;57876;47.792;12.960;2023-03-23T10:06:03;96340.59;;;15.50;45.32
70434;BME280;57876;47.792;12.960;2023-03-23T10:08:30;96337.06;;;15.50;45.06
70434;BME280;57876;47.792;12.960;2023-03-23T10:16:03;96334.69;;;15.48;45.06
70434;BME280;57876;47.792;12.960;2023-03-23T10:18:49;96337.84;;;15.50;44.92
70434;BME280;57876;47.792;12.960;2023-03-23T10:21:20;96333.53;;;15.49;44.97
70434;BME280;57876;47.792;12.960;2023-03-23T10:24:02;96323.44;;;15.50;45.16
70434;BME280;57876;47.792;12.960;2023-03-23T10:29:18;96323.13;;;15.51;45.25
70434;BME280;57876;47.792;12.960;2023-03-23T10:31:48;96322.66;;;15.49;45.20
70434;BME280;57876;47.792;12.960;2023-03-23T10:34:22;96315.25;;;15.50;44.98
70434;BME280;57876;47.792;12.960;2023-03-23T10:36:59;96319.13;;;15.49;45.21
70434;BME280;57876;47.792;12.960;2023-03-23T10:39:30;96310.59;;;15.50;45.70
70434;BME280;57876;47.792;12.960;2023-03-23T10:41:55;96308.69;;;15.51;45.01
70434;BME280;57876;47.792;12.960;2023-03-23T10:44:23;96310.59;;;15.50;45.32
70434;BME280;57876;47.792;12.960;2023-03-23T10:47:03;96303.56;;;15.49;44.97
70434;BME280;57876;47.792;12.960;2023-03-23T10:49:37;96293.81;;;15.48;45.45
70434;BME280;57876;47.792;12.960;2023-03-23T10:55:00;96307.09;;;15.50;45.21
70434;BME280;57876;47.792;12.960;2023-03-23T10:57:29;96295.38;;;15.49;45.04
70434;BME280;57876;47.792;12.960;2023-03-23T11:00:05;96303.56;;;15.49;45.34
70434;BME280;57876;47.792;12.960;2023-03-23T11:02:38;96286.91;;;15.51;45.24
70434;BME280;57876;47.792;12.960;2023-03-23T11:07:48;96284.97;;;15.51;44.88
70434;BME280;57876;47.792;12.960;2023-03-23T11:10:21;96287.22;;;15.49;45.08
70434;BME280;57876;47.792;12.960;2023-03-23T11:12:45;96286.91;;;15.51;44.99
70434;BME280;57876;47.792;12.960;2023-03-23T11:15:36;96286.06;;;15.50;45.06
70434;BME280;57876;47.792;12.960;2023-03-23T11:18:04;96287.69;;;15.51;45.24
70434;BME280;57876;47.792;12.960;2023-03-23T11:20:34;96284.97;;;15.51;45.34
70434;BME280;57876;47.792;12.960;2023-03-23T11:23:00;96284.97;;;15.51;45.06
70434;BME280;57876;47.792;12.960;2023-03-23T11:25:25;96284.97;;;15.51;45.26
70434;BME280;57876;47.792;12.960;2023-03-23T11:27:50;96291.22;;;15.52;45.09
70434;BME280;57876;47.792;12.960;2023-03-23T11:30:20;96296.66;;;15.52;45.24
70434;BME280;57876;47.792;12.960;2023-03-23T11:32:46;96290.41;;;15.51;45.33
70434;BME280;57876;47.792;12.960;2023-03-23T11:35:27;96296.66;;;15.52;45.28
70434;BME280;57876;47.792;12.960;2023-03-23T11:37:56;96288.47;;;15.52;45.46
70434;BME280;57876;47.792;12.960;2023-03-23T11:40:24;96285.28;;;15.50;45.25
70434;BME280;57876;47.792;12.960;2023-03-23T11:42:57;96283.81;;;15.52;45.22
70434;BME280;57876;47.792;12.960;2023-03-23T11:54:00;96285.75;;;15.52;45.22
70434;BME280;57876;47.792;12.960;2023-03-23T11:56:36;96288.81;;;15.50;44.97
70434;BME280;57876;47.792;12.960;2023-03-23T11:59:01;96285.75;;;15.52;45.04
70434;BME280;57876;47.792;12.960;2023-03-23T12:01:52;96287.34;;;15.53;45.48
70434;BME280;57876;47.792;12.960;2023-03-23T12:04:37;96281.09;;;15.52;44.88
70434;BME280;57876;47.792;12.960;2023-03-23T12:18:05;96288.63;;;15.55;45.34
70434;BME280;57876;47.792;12.960;2023-03-23T12:23:40;96288.22;;;15.74;45.75
70434;BME280;57876;47.792;12.960;2023-03-23T12:34:32;96288.72;;;15.68;45.53
70434;BME280;57876;47.792;12.960;2023-03-23T12:43:15;96285.03;;;15.63;45.63
70434;BME280;57876;47.792;12.960;2023-03-23T12:48:31;96273.22;;;15.59;45.73
70434;BME280;57876;47.792;12.960;2023-03-23T12:53:34;96267.47;;;16.45;44.99
70434;BME280;57876;47.792;12.960;2023-03-23T12:56:16;96255.22;;;16.30;45.44
70434;BME280;57876;47.792;12.960;2023-03-23T12:58:45;96267.75;;;16.31;45.06
70434;BME280;57876;47.792;12.960;2023-03-23T13:01:14;96261.34;;;16.27;45.55
70434;BME280;57876;47.792;12.960;2023-03-23T13:04:06;96265.22;;;16.26;45.34
70434;BME280;57876;47.792;12.960;2023-03-23T13:06:43;96259.28;;;16.24;45.19
70434;BME280;57876;47.792;12.960;2023-03-23T13:11:40;96261.56;;;16.22;45.18
70434;BME280;57876;47.792;12.960;2023-03-23T13:22:52;96252.72;;;16.25;45.65
70434;BME280;57876;47.792;12.960;2023-03-23T13:28:14;96246.13;;;16.26;45.32
70434;BME280;57876;47.792;12.960;2023-03-23T13:30:39;96244.19;;;16.26;45.40
70434;BME280;57876;47.792;12.960;2023-03-23T13:33:05;96248.84;;;16.26;45.60
70434;BME280;57876;47.792;12.960;2023-03-23T13:35:36;96252.06;;;16.28;45.43
70434;BME280;57876;47.792;12.960;2023-03-23T13:38:17;96246.59;;;16.28;45.17
70434;BME280;57876;47.792;12.960;2023-03-23T13:40:44;96257.94;;;16.30;45.44
70434;BME280;57876;47.792;12.960;2023-03-23T13:43:09;96250.91;;;16.29;45.75
70434;BME280;57876;47.792;12.960;2023-03-23T13:45:47;96248.50;;;16.27;45.54
70434;BME280;57876;47.792;12.960;2023-03-23T13:53:29;96246.72;;;16.32;45.68
70434;BME280;57876;47.792;12.960;2023-03-23T13:59:14;96238.53;;;16.32;45.85
70434;BME280;57876;47.792;12.960;2023-03-23T14:01:39;96239.78;;;16.34;45.34
70434;BME280;57876;47.792;12.960;2023-03-23T14:04:09;96227.28;;;16.33;45.47
70434;BME280;57876;47.792;12.960;2023-03-23T14:06:35;96226.13;;;16.34;45.65
70434;BME280;57876;47.792;12.960;2023-03-23T14:09:06;96219.09;;;16.33;45.41
70434;BME280;57876;47.792;12.960;2023-03-23T14:11:33;96222.72;;;16.37;45.67
70434;BME280;57876;47.792;12.960;2023-03-23T14:14:07;96216.47;;;16.37;45.53
70434;BME280;57876;47.792;12.960;2023-03-23T14:16:39;96220.00;;;16.37;45.42
70434;BME280;57876;47.792;12.960;2023-03-23T14:19:21;96210.22;;;16.36;45.18
70434;BME280;57876;47.792;12.960;2023-03-23T14:21:52;96217.28;;;16.37;45.02
70434;BME280;57876;47.792;12.960;2023-03-23T14:26:47;96220.47;;;16.39;45.51
70434;BME280;57876;47.792;12.960;2023-03-23T14:29:13;96213.53;;;16.42;45.25
70434;BME280;57876;47.792;12.960;2023-03-23T14:31:39;96225.25;;;16.42;45.56
70434;BME280;57876;47.792;12.960;2023-03-23T14:34:12;96216.59;;;16.40;45.00
70434;BME280;57876;47.792;12.960;2023-03-23T14:36:37;96227.97;;;16.42;45.53
70434;BME280;57876;47.792;12.960;2023-03-23T14:39:28;96232.28;;;16.43;44.87
70434;BME280;57876;47.792;12.960;2023-03-23T14:41:53;96238.22;;;16.45;45.08
70434;BME280;57876;47.792;12.960;2023-03-23T14:44:24;96237.75;;;16.43;45.15
70434;BME280;57876;47.792;12.960;2023-03-23T14:46:49;96243.38;;;16.47;45.28
70434;BME280;57876;47.792;12.960;2023-03-23T14:49:17;96240.28;;;16.48;45.37
70434;BME280;57876;47.792;12.960;2023-03-23T14:51:54;96235.50;;;16.45;45.46